sensor_id;sensor_type;location;lat;lon;timestamp;P1;durP1;ratioP1;P2;durP2;ratioP2
8737;SDS011;4405;49.272;8.590;2023-08-06T00:01:14;2.97;;;2.80;;
8737;SDS011;4405;49.272;8.590;2023-08-06T00:03:41;2.90;;;2.80;;
8737;SDS011;4405;49.272;8.590;2023-08-06T00:06:07;3.00;;;2.70;;
8737;SDS011;4405;49.272;8.590;2023-08-06T00:08:33;2.90;;;2.70;;
8737;SDS011;4405;49.272;8.590;2023-08-06T00:11:00;5.67;;;2.80;;
8737;SDS011;4405;49.272;8.590;2023-08-06T00:13:27;3.63;;;3.33;;
8737;SDS011;4405;49.272;8.590;2023-08-06T00:15:53;3.43;;;3.20;;
8737;SDS011;4405;49.272;8.590;2023-08-06T00:18:20;4.10;;;3.27;;
8737;SDS011;4405;49.272;8.590;2023-08-06T00:20:46;2.80;;;2.67;;
8737;SDS011;4405;49.272;8.590;2023-08-06T00:23:12;3.23;;;2.93;;
8737;SDS011;4405;49.272;8.590;2023-08-06T00:25:39;2.90;;;2.70;;
8737;SDS011;4405;49.272;8.590;2023-08-06T00:28:05;4.70;;;2.97;;
8737;SDS011;4405;49.272;8.590;2023-08-06T00:30:33;2.90;;;2.60;;
8737;SDS011;4405;49.272;8.590;2023-08-06T00:32:59;3.13;;;2.83;;
8737;SDS011;4405;49.272;8.590;2023-08-06T00:35:25;3.20;;;3.00;;
8737;SDS011;4405;49.272;8.590;2023-08-06T00:37:52;3.13;;;2.70;;
8737;SDS011;4405;49.272;8.590;2023-08-06T00:40:20;2.93;;;2.73;;
8737;SDS011;4405;49.272;8.590;2023-08-06T00:42:46;2.77;;;2.57;;
8737;SDS011;4405;49.272;8.590;2023-08-06T00:45:12;2.77;;;2.57;;
8737;SDS011;4405;49.272;8.590;2023-08-06T00:47:40;3.23;;;3.03;;
8737;SDS011;4405;49.272;8.590;2023-08-06T00:50:07;3.07;;;2.87;;
8737;SDS011;4405;49.272;8.590;2023-08-06T00:52:34;3.10;;;2.90;;
8737;SDS011;4405;49.272;8.590;2023-08-06T00:55:01;2.97;;;2.77;;
8737;SDS011;4405;49.272;8.590;2023-08-06T00:57:27;3.97;;;2.50;;
8737;SDS011;4405;49.272;8.590;2023-08-06T00:59:53;2.77;;;2.57;;
8737;SDS011;4405;49.272;8.590;2023-08-06T01:02:20;3.60;;;2.57;;
8737;SDS011;4405;49.272;8.590;2023-08-06T01:04:48;4.67;;;2.50;;
8737;SDS011;4405;49.272;8.590;2023-08-06T01:07:17;2.90;;;2.70;;
8737;SDS011;4405;49.272;8.590;2023-08-06T01:09:48;2.87;;;2.60;;
8737;SDS011;4405;49.272;8.590;2023-08-06T01:12:18;2.47;;;2.37;;
8737;SDS011;4405;49.272;8.590;2023-08-06T01:14:48;2.40;;;2.30;;
8737;SDS011;4405;49.272;8.590;2023-08-06T01:17:17;2.60;;;2.40;;
8737;SDS011;4405;49.272;8.590;2023-08-06T01:19:44;4.03;;;2.57;;
8737;SDS011;4405;49.272;8.590;2023-08-06T01:22:11;2.73;;;2.63;;
8737;SDS011;4405;49.272;8.590;2023-08-06T01:24:38;2.40;;;2.23;;
8737;SDS011;4405;49.272;8.590;2023-08-06T01:27:06;2.60;;;2.40;;
8737;SDS011;4405;49.272;8.590;2023-08-06T01:29:34;2.77;;;2.50;;
8737;SDS011;4405;49.272;8.590;2023-08-06T01:32:01;2.77;;;2.63;;
8737;SDS011;4405;49.272;8.590;2023-08-06T01:34:28;2.10;;;2.00;;
8737;SDS011;4405;49.272;8.590;2023-08-06T01:36:56;2.13;;;2.10;;
8737;SDS011;4405;49.272;8.590;2023-08-06T01:39:25;2.37;;;2.10;;
8737;SDS011;4405;49.272;8.590;2023-08-06T01:41:51;2.40;;;2.30;;
8737;SDS011;4405;49.272;8.590;2023-08-06T01:44:17;3.40;;;2.10;;
8737;SDS011;4405;49.272;8.590;2023-08-06T01:46:44;3.37;;;2.40;;
8737;SDS011;4405;49.272;8.590;2023-08-06T01:49:10;4.13;;;2.20;;
8737;SDS011;4405;49.272;8.590;2023-08-06T01:51:37;2.30;;;2.20;;
8737;SDS011;4405;49.272;8.590;2023-08-06T01:54:03;2.07;;;1.97;;
8737;SDS011;4405;49.272;8.590;2023-08-06T01:56:31;2.37;;;2.13;;
8737;SDS011;4405;49.272;8.590;2023-08-06T01:58:57;2.40;;;2.30;;
8737;SDS011;4405;49.272;8.590;2023-08-06T02:01:23;5.90;;;2.53;;
8737;SDS011;4405;49.272;8.590;2023-08-06T02:03:50;2.30;;;2.20;;
8737;SDS011;4405;49.272;8.590;2023-08-06T02:06:16;2.60;;;2.40;;
8737;SDS011;4405;49.272;8.590;2023-08-06T02:08:42;4.23;;;2.17;;
8737;SDS011;4405;49.272;8.590;2023-08-06T02:11:09;2.10;;;2.00;;
8737;SDS011;4405;49.272;8.590;2023-08-06T02:13:36;2.67;;;2.43;;
8737;SDS011;4405;49.272;8.590;2023-08-06T02:16:03;2.57;;;2.47;;
8737;SDS011;4405;49.272;8.590;2023-08-06T02:18:29;2.33;;;2.20;;
8737;SDS011;4405;49.272;8.590;2023-08-06T02:20:55;2.97;;;2.67;;
8737;SDS011;4405;49.272;8.590;2023-08-06T02:23:22;2.30;;;2.10;;
8737;SDS011;4405;49.272;8.590;2023-08-06T02:25:56;2.50;;;2.30;;
8737;SDS011;4405;49.272;8.590;2023-08-06T02:28:22;2.20;;;2.00;;
8737;SDS011;4405;49.272;8.590;2023-08-06T02:30:50;2.10;;;2.00;;
8737;SDS011;4405;49.272;8.590;2023-08-06T02:33:17;4.63;;;2.63;;
8737;SDS011;4405;49.272;8.590;2023-08-06T02:35:43;2.10;;;2.00;;
8737;SDS011;4405;49.272;8.590;2023-08-06T02:38:09;2.40;;;2.30;;
8737;SDS011;4405;49.272;8.590;2023-08-06T02:40:36;2.33;;;2.23;;
8737;SDS011;4405;49.272;8.590;2023-08-06T02:43:03;2.40;;;2.20;;
8737;SDS011;4405;49.272;8.590;2023-08-06T02:45:29;2.70;;;1.90;;
8737;SDS011;4405;49.272;8.590;2023-08-06T02:47:57;2.53;;;2.00;;
8737;SDS011;4405;49.272;8.590;2023-08-06T02:50:23;2.80;;;2.27;;
8737;SDS011;4405;49.272;8.590;2023-08-06T02:52:49;2.33;;;2.13;;
8737;SDS011;4405;49.272;8.590;2023-08-06T02:55:16;3.20;;;2.00;;
8737;SDS011;4405;49.272;8.590;2023-08-06T02:57:42;3.10;;;2.03;;
8737;SDS011;4405;49.272;8.590;2023-08-06T03:00:09;2.50;;;2.30;;
8737;SDS011;4405;49.272;8.590;2023-08-06T03:02:36;2.70;;;2.10;;
8737;SDS011;4405;49.272;8.590;2023-08-06T03:05:04;1.77;;;1.67;;
8737;SDS011;4405;49.272;8.590;2023-08-06T03:07:31;2.30;;;1.90;;
8737;SDS011;4405;49.272;8.590;2023-08-06T03:09:59;3.93;;;1.93;;
8737;SDS011;4405;49.272;8.590;2023-08-06T03:12:26;2.30;;;2.10;;
8737;SDS011;4405;49.272;8.590;2023-08-06T03:14:52;2.90;;;2.00;;
8737;SDS011;4405;49.272;8.590;2023-08-06T03:17:18;2.83;;;2.10;;
8737;SDS011;4405;49.272;8.590;2023-08-06T03:19:45;4.60;;;2.07;;
8737;SDS011;4405;49.272;8.590;2023-08-06T03:22:12;2.60;;;2.00;;
8737;SDS011;4405;49.272;8.590;2023-08-06T03:24:39;3.70;;;2.10;;
8737;SDS011;4405;49.272;8.590;2023-08-06T03:27:05;2.60;;;1.80;;
8737;SDS011;4405;49.272;8.590;2023-08-06T03:29:31;2.07;;;1.80;;
8737;SDS011;4405;49.272;8.590;2023-08-06T03:31:58;2.53;;;1.83;;
8737;SDS011;4405;49.272;8.590;2023-08-06T03:34:24;3.33;;;1.73;;
8737;SDS011;4405;49.272;8.590;2023-08-06T03:36:50;2.17;;;1.90;;
8737;SDS011;4405;49.272;8.590;2023-08-06T03:39:18;3.23;;;1.97;;
8737;SDS011;4405;49.272;8.590;2023-08-06T03:41:44;2.07;;;1.57;;
8737;SDS011;4405;49.272;8.590;2023-08-06T03:44:10;1.73;;;1.60;;
8737;SDS011;4405;49.272;8.590;2023-08-06T03:46:37;2.63;;;1.70;;
8737;SDS011;4405;49.272;8.590;2023-08-06T03:49:03;2.80;;;1.90;;
8737;SDS011;4405;49.272;8.590;2023-08-06T03:51:29;3.67;;;1.80;;
8737;SDS011;4405;49.272;8.590;2023-08-06T03:53:56;2.83;;;1.57;;
8737;SDS011;4405;49.272;8.590;2023-08-06T03:56:23;5.50;;;1.57;;
8737;SDS011;4405;49.272;8.590;2023-08-06T03:58:50;5.03;;;1.60;;
8737;SDS011;4405;49.272;8.590;2023-08-06T04:01:16;1.90;;;1.60;;
8737;SDS011;4405;49.272;8.590;2023-08-06T04:03:42;3.10;;;1.60;;
8737;SDS011;4405;49.272;8.590;2023-08-06T04:06:09;5.30;;;1.47;;
8737;SDS011;4405;49.272;8.590;2023-08-06T04:08:35;1.20;;;1.10;;
8737;SDS011;4405;49.272;8.590;2023-08-06T04:11:01;2.27;;;1.47;;
8737;SDS011;4405;49.272;8.590;2023-08-06T04:13:30;1.87;;;1.27;;
8737;SDS011;4405;49.272;8.590;2023-08-06T04:16:00;4.47;;;1.40;;
8737;SDS011;4405;49.272;8.590;2023-08-06T04:18:26;1.30;;;0.80;;
8737;SDS011;4405;49.272;8.590;2023-08-06T04:20:52;3.77;;;1.10;;
8737;SDS011;4405;49.272;8.590;2023-08-06T04:23:20;1.47;;;1.30;;
8737;SDS011;4405;49.272;8.590;2023-08-06T04:25:46;2.30;;;1.33;;
8737;SDS011;4405;49.272;8.590;2023-08-06T04:28:13;2.20;;;1.37;;
8737;SDS011;4405;49.272;8.590;2023-08-06T04:30:40;2.00;;;1.50;;
8737;SDS011;4405;49.272;8.590;2023-08-06T04:33:07;3.00;;;1.47;;
8737;SDS011;4405;49.272;8.590;2023-08-06T04:35:33;2.10;;;1.13;;
8737;SDS011;4405;49.272;8.590;2023-08-06T04:37:59;3.40;;;1.30;;
8737;SDS011;4405;49.272;8.590;2023-08-06T04:40:26;3.67;;;1.47;;
8737;SDS011;4405;49.272;8.590;2023-08-06T04:42:52;2.97;;;1.10;;
8737;SDS011;4405;49.272;8.590;2023-08-06T04:45:19;4.20;;;1.37;;
8737;SDS011;4405;49.272;8.590;2023-08-06T04:47:46;2.60;;;1.43;;
8737;SDS011;4405;49.272;8.590;2023-08-06T04:50:13;3.33;;;1.30;;
8737;SDS011;4405;49.272;8.590;2023-08-06T04:52:39;3.40;;;1.27;;
8737;SDS011;4405;49.272;8.590;2023-08-06T04:55:05;3.90;;;1.40;;
8737;SDS011;4405;49.272;8.590;2023-08-06T04:57:32;3.07;;;1.20;;
8737;SDS011;4405;49.272;8.590;2023-08-06T04:59:58;3.10;;;1.20;;
8737;SDS011;4405;49.272;8.590;2023-08-06T05:02:24;2.10;;;1.03;;
8737;SDS011;4405;49.272;8.590;2023-08-06T05:04:52;2.67;;;1.10;;
8737;SDS011;4405;49.272;8.590;2023-08-06T05:07:18;4.87;;;1.40;;
8737;SDS011;4405;49.272;8.590;2023-08-06T05:09:45;3.60;;;1.20;;
8737;SDS011;4405;49.272;8.590;2023-08-06T05:12:11;1.13;;;1.07;;
8737;SDS011;4405;49.272;8.590;2023-08-06T05:14:37;2.40;;;1.10;;
8737;SDS011;4405;49.272;8.590;2023-08-06T05:17:04;2.80;;;1.20;;
8737;SDS011;4405;49.272;8.590;2023-08-06T05:19:30;2.17;;;1.40;;
8737;SDS011;4405;49.272;8.590;2023-08-06T05:21:58;2.87;;;1.20;;
8737;SDS011;4405;49.272;8.590;2023-08-06T05:24:24;3.37;;;1.20;;
8737;SDS011;4405;49.272;8.590;2023-08-06T05:26:50;5.77;;;1.20;;
8737;SDS011;4405;49.272;8.590;2023-08-06T05:29:17;6.87;;;1.40;;
8737;SDS011;4405;49.272;8.590;2023-08-06T05:31:43;3.73;;;1.30;;
8737;SDS011;4405;49.272;8.590;2023-08-06T05:34:10;3.53;;;1.10;;
8737;SDS011;4405;49.272;8.590;2023-08-06T05:36:36;3.80;;;1.40;;
8737;SDS011;4405;49.272;8.590;2023-08-06T05:39:04;8.10;;;1.50;;
8737;SDS011;4405;49.272;8.590;2023-08-06T05:41:30;4.37;;;1.37;;
8737;SDS011;4405;49.272;8.590;2023-08-06T05:43:56;3.17;;;1.23;;
8737;SDS011;4405;49.272;8.590;2023-08-06T05:46:22;4.13;;;1.20;;
8737;SDS011;4405;49.272;8.590;2023-08-06T05:48:49;5.30;;;1.50;;
8737;SDS011;4405;49.272;8.590;2023-08-06T05:51:16;4.83;;;1.40;;
8737;SDS011;4405;49.272;8.590;2023-08-06T05:53:42;1.50;;;0.83;;
8737;SDS011;4405;49.272;8.590;2023-08-06T05:56:12;1.80;;;1.10;;
8737;SDS011;4405;49.272;8.590;2023-08-06T05:58:38;2.20;;;1.23;;
8737;SDS011;4405;49.272;8.590;2023-08-06T06:01:04;2.77;;;1.20;;
8737;SDS011;4405;49.272;8.590;2023-08-06T06:03:31;2.37;;;1.10;;
8737;SDS011;4405;49.272;8.590;2023-08-06T06:05:57;1.37;;;1.10;;
8737;SDS011;4405;49.272;8.590;2023-08-06T06:08:24;0.80;;;0.80;;
8737;SDS011;4405;49.272;8.590;2023-08-06T06:10:50;2.47;;;0.80;;
8737;SDS011;4405;49.272;8.590;2023-08-06T06:13:18;1.83;;;0.73;;
8737;SDS011;4405;49.272;8.590;2023-08-06T06:15:45;0.60;;;0.60;;
8737;SDS011;4405;49.272;8.590;2023-08-06T06:18:12;2.07;;;0.80;;
8737;SDS011;4405;49.272;8.590;2023-08-06T06:20:38;2.13;;;0.90;;
8737;SDS011;4405;49.272;8.590;2023-08-06T06:23:05;1.03;;;0.70;;
8737;SDS011;4405;49.272;8.590;2023-08-06T06:25:31;0.63;;;0.63;;
8737;SDS011;4405;49.272;8.590;2023-08-06T06:27:57;1.10;;;0.80;;
8737;SDS011;4405;49.272;8.590;2023-08-06T06:30:26;0.77;;;0.77;;
8737;SDS011;4405;49.272;8.590;2023-08-06T06:32:52;2.37;;;0.90;;
8737;SDS011;4405;49.272;8.590;2023-08-06T06:35:18;0.77;;;0.77;;
8737;SDS011;4405;49.272;8.590;2023-08-06T06:37:45;0.60;;;0.60;;
8737;SDS011;4405;49.272;8.590;2023-08-06T06:40:11;3.03;;;0.80;;
8737;SDS011;4405;49.272;8.590;2023-08-06T06:42:37;1.23;;;0.70;;
8737;SDS011;4405;49.272;8.590;2023-08-06T06:45:04;1.13;;;0.73;;
8737;SDS011;4405;49.272;8.590;2023-08-06T06:47:32;0.70;;;0.70;;
8737;SDS011;4405;49.272;8.590;2023-08-06T06:49:58;1.23;;;0.53;;
8737;SDS011;4405;49.272;8.590;2023-08-06T06:52:24;1.30;;;0.80;;
8737;SDS011;4405;49.272;8.590;2023-08-06T06:54:51;0.77;;;0.70;;
8737;SDS011;4405;49.272;8.590;2023-08-06T06:57:17;1.33;;;0.60;;
8737;SDS011;4405;49.272;8.590;2023-08-06T06:59:43;0.60;;;0.60;;
8737;SDS011;4405;49.272;8.590;2023-08-06T07:02:10;0.87;;;0.70;;
8737;SDS011;4405;49.272;8.590;2023-08-06T07:04:37;1.30;;;0.60;;
8737;SDS011;4405;49.272;8.590;2023-08-06T07:07:04;1.67;;;0.63;;
8737;SDS011;4405;49.272;8.590;2023-08-06T07:09:30;1.03;;;0.80;;
8737;SDS011;4405;49.272;8.590;2023-08-06T07:11:56;1.40;;;0.60;;
8737;SDS011;4405;49.272;8.590;2023-08-06T07:14:24;0.50;;;0.50;;
8737;SDS011;4405;49.272;8.590;2023-08-06T07:16:50;0.50;;;0.50;;
8737;SDS011;4405;49.272;8.590;2023-08-06T07:19:17;2.03;;;0.43;;
8737;SDS011;4405;49.272;8.590;2023-08-06T07:21:44;1.03;;;0.43;;
8737;SDS011;4405;49.272;8.590;2023-08-06T07:24:11;0.47;;;0.47;;
8737;SDS011;4405;49.272;8.590;2023-08-06T07:26:37;1.33;;;0.40;;
8737;SDS011;4405;49.272;8.590;2023-08-06T07:29:04;0.40;;;0.40;;
8737;SDS011;4405;49.272;8.590;2023-08-06T07:31:30;0.73;;;0.53;;
8737;SDS011;4405;49.272;8.590;2023-08-06T07:33:56;0.60;;;0.60;;
8737;SDS011;4405;49.272;8.590;2023-08-06T07:36:23;1.23;;;0.53;;
8737;SDS011;4405;49.272;8.590;2023-08-06T07:38:50;0.40;;;0.40;;
8737;SDS011;4405;49.272;8.590;2023-08-06T07:41:20;0.80;;;0.70;;
8737;SDS011;4405;49.272;8.590;2023-08-06T07:43:47;0.50;;;0.50;;
8737;SDS011;4405;49.272;8.590;2023-08-06T07:46:13;0.87;;;0.50;;
8737;SDS011;4405;49.272;8.590;2023-08-06T07:48:39;0.63;;;0.63;;
8737;SDS011;4405;49.272;8.590;2023-08-06T07:51:06;0.63;;;0.63;;
8737;SDS011;4405;49.272;8.590;2023-08-06T07:53:32;0.90;;;0.63;;
8737;SDS011;4405;49.272;8.590;2023-08-06T07:56:00;0.40;;;0.40;;
8737;SDS011;4405;49.272;8.590;2023-08-06T07:58:27;0.37;;;0.37;;
8737;SDS011;4405;49.272;8.590;2023-08-06T08:00:54;0.87;;;0.40;;
8737;SDS011;4405;49.272;8.590;2023-08-06T08:03:21;1.90;;;0.50;;
8737;SDS011;4405;49.272;8.590;2023-08-06T08:05:47;0.67;;;0.60;;
8737;SDS011;4405;49.272;8.590;2023-08-06T08:08:13;1.13;;;0.40;;
8737;SDS011;4405;49.272;8.590;2023-08-06T08:10:40;0.70;;;0.70;;
8737;SDS011;4405;49.272;8.590;2023-08-06T08:13:08;0.60;;;0.50;;
8737;SDS011;4405;49.272;8.590;2023-08-06T08:15:35;0.67;;;0.40;;
8737;SDS011;4405;49.272;8.590;2023-08-06T08:18:01;0.40;;;0.40;;
8737;SDS011;4405;49.272;8.590;2023-08-06T08:20:27;0.43;;;0.43;;
8737;SDS011;4405;49.272;8.590;2023-08-06T08:22:58;2.47;;;0.50;;
8737;SDS011;4405;49.272;8.590;2023-08-06T08:25:25;0.40;;;0.40;;
8737;SDS011;4405;49.272;8.590;2023-08-06T08:27:52;0.60;;;0.60;;
8737;SDS011;4405;49.272;8.590;2023-08-06T08:30:19;1.23;;;0.60;;
8737;SDS011;4405;49.272;8.590;2023-08-06T08:32:46;1.53;;;0.50;;
8737;SDS011;4405;49.272;8.590;2023-08-06T08:35:12;0.50;;;0.50;;
8737;SDS011;4405;49.272;8.590;2023-08-06T08:37:39;0.40;;;0.30;;
8737;SDS011;4405;49.272;8.590;2023-08-06T08:40:05;0.50;;;0.50;;
8737;SDS011;4405;49.272;8.590;2023-08-06T08:42:32;0.40;;;0.40;;
8737;SDS011;4405;49.272;8.590;2023-08-06T08:44:58;0.30;;;0.30;;
8737;SDS011;4405;49.272;8.590;2023-08-06T08:47:26;0.83;;;0.20;;
8737;SDS011;4405;49.272;8.590;2023-08-06T08:49:54;0.20;;;0.20;;
8737;SDS011;4405;49.272;8.590;2023-08-06T08:52:20;0.27;;;0.27;;
8737;SDS011;4405;49.272;8.590;2023-08-06T08:54:47;0.30;;;0.30;;
8737;SDS011;4405;49.272;8.590;2023-08-06T08:57:16;0.33;;;0.33;;
8737;SDS011;4405;49.272;8.590;2023-08-06T08:59:42;0.10;;;0.10;;
8737;SDS011;4405;49.272;8.590;2023-08-06T09:02:09;0.30;;;0.30;;
8737;SDS011;4405;49.272;8.590;2023-08-06T09:04:38;0.40;;;0.30;;
8737;SDS011;4405;49.272;8.590;2023-08-06T09:07:05;0.80;;;0.40;;
8737;SDS011;4405;49.272;8.590;2023-08-06T09:09:33;0.30;;;0.30;;
8737;SDS011;4405;49.272;8.590;2023-08-06T09:12:02;3.97;;;0.33;;
8737;SDS011;4405;49.272;8.590;2023-08-06T09:14:32;0.30;;;0.30;;
8737;SDS011;4405;49.272;8.590;2023-08-06T09:16:58;0.40;;;0.40;;
8737;SDS011;4405;49.272;8.590;2023-08-06T09:19:24;0.30;;;0.30;;
8737;SDS011;4405;49.272;8.590;2023-08-06T09:21:54;0.40;;;0.40;;
8737;SDS011;4405;49.272;8.590;2023-08-06T09:24:21;0.30;;;0.30;;
8737;SDS011;4405;49.272;8.590;2023-08-06T09:26:48;1.33;;;0.53;;
8737;SDS011;4405;49.272;8.590;2023-08-06T09:29:14;0.40;;;0.40;;
8737;SDS011;4405;49.272;8.590;2023-08-06T09:31:41;0.30;;;0.30;;
8737;SDS011;4405;49.272;8.590;2023-08-06T09:34:10;0.33;;;0.33;;
8737;SDS011;4405;49.272;8.590;2023-08-06T09:36:39;0.30;;;0.30;;
8737;SDS011;4405;49.272;8.590;2023-08-06T09:39:08;0.30;;;0.30;;
8737;SDS011;4405;49.272;8.590;2023-08-06T09:41:38;0.33;;;0.30;;
8737;SDS011;4405;49.272;8.590;2023-08-06T09:44:05;0.30;;;0.30;;
8737;SDS011;4405;49.272;8.590;2023-08-06T09:46:31;0.20;;;0.20;;
8737;SDS011;4405;49.272;8.590;2023-08-06T09:48:58;0.20;;;0.20;;
8737;SDS011;4405;49.272;8.590;2023-08-06T09:51:24;0.30;;;0.30;;
8737;SDS011;4405;49.272;8.590;2023-08-06T09:53:51;0.30;;;0.30;;
8737;SDS011;4405;49.272;8.590;2023-08-06T09:56:19;0.60;;;0.40;;
8737;SDS011;4405;49.272;8.590;2023-08-06T09:58:45;0.40;;;0.40;;
8737;SDS011;4405;49.272;8.590;2023-08-06T10:01:13;1.03;;;0.30;;
8737;SDS011;4405;49.272;8.590;2023-08-06T10:03:40;0.40;;;0.40;;
8737;SDS011;4405;49.272;8.590;2023-08-06T10:06:06;0.27;;;0.27;;
8737;SDS011;4405;49.272;8.590;2023-08-06T10:08:34;0.40;;;0.40;;
8737;SDS011;4405;49.272;8.590;2023-08-06T10:11:00;0.37;;;0.37;;
8737;SDS011;4405;49.272;8.590;2023-08-06T10:13:30;0.30;;;0.30;;
8737;SDS011;4405;49.272;8.590;2023-08-06T10:15:57;0.57;;;0.20;;
8737;SDS011;4405;49.272;8.590;2023-08-06T10:18:23;0.30;;;0.30;;
8737;SDS011;4405;49.272;8.590;2023-08-06T10:20:49;0.30;;;0.30;;
8737;SDS011;4405;49.272;8.590;2023-08-06T10:23:16;0.30;;;0.30;;
8737;SDS011;4405;49.272;8.590;2023-08-06T10:25:45;0.20;;;0.20;;
8737;SDS011;4405;49.272;8.590;2023-08-06T10:28:20;0.27;;;0.27;;
8737;SDS011;4405;49.272;8.590;2023-08-06T10:30:48;0.37;;;0.37;;
8737;SDS011;4405;49.272;8.590;2023-08-06T10:33:15;0.37;;;0.37;;
8737;SDS011;4405;49.272;8.590;2023-08-06T10:35:46;0.20;;;0.20;;
8737;SDS011;4405;49.272;8.590;2023-08-06T10:38:14;0.50;;;0.50;;
8737;SDS011;4405;49.272;8.590;2023-08-06T10:40:41;0.67;;;0.40;;
8737;SDS011;4405;49.272;8.590;2023-08-06T10:43:08;0.37;;;0.37;;
8737;SDS011;4405;49.272;8.590;2023-08-06T10:45:52;0.37;;;0.37;;
8737;SDS011;4405;49.272;8.590;2023-08-06T10:48:27;0.50;;;0.50;;
8737;SDS011;4405;49.272;8.590;2023-08-06T10:50:54;0.37;;;0.37;;
8737;SDS011;4405;49.272;8.590;2023-08-06T10:53:21;0.30;;;0.30;;
8737;SDS011;4405;49.272;8.590;2023-08-06T10:55:47;0.50;;;0.50;;
8737;SDS011;4405;49.272;8.590;2023-08-06T10:58:15;0.40;;;0.40;;
8737;SDS011;4405;49.272;8.590;2023-08-06T11:00:41;0.57;;;0.57;;
8737;SDS011;4405;49.272;8.590;2023-08-06T11:03:09;0.63;;;0.63;;
8737;SDS011;4405;49.272;8.590;2023-08-06T11:05:35;0.40;;;0.40;;
8737;SDS011;4405;49.272;8.590;2023-08-06T11:08:02;2.37;;;0.70;;
8737;SDS011;4405;49.272;8.590;2023-08-06T11:10:28;1.10;;;0.90;;
8737;SDS011;4405;49.272;8.590;2023-08-06T11:12:55;0.73;;;0.73;;
8737;SDS011;4405;49.272;8.590;2023-08-06T11:15:21;0.67;;;0.67;;
8737;SDS011;4405;49.272;8.590;2023-08-06T11:17:47;0.70;;;0.70;;
8737;SDS011;4405;49.272;8.590;2023-08-06T11:20:15;0.70;;;0.70;;
8737;SDS011;4405;49.272;8.590;2023-08-06T11:22:42;0.60;;;0.60;;
8737;SDS011;4405;49.272;8.590;2023-08-06T11:25:09;0.80;;;0.80;;
8737;SDS011;4405;49.272;8.590;2023-08-06T11:27:35;0.97;;;0.97;;
8737;SDS011;4405;49.272;8.590;2023-08-06T11:30:02;1.07;;;0.87;;
8737;SDS011;4405;49.272;8.590;2023-08-06T11:32:29;2.10;;;1.00;;
8737;SDS011;4405;49.272;8.590;2023-08-06T11:34:55;1.00;;;1.00;;
8737;SDS011;4405;49.272;8.590;2023-08-06T11:37:23;1.20;;;1.20;;
8737;SDS011;4405;49.272;8.590;2023-08-06T11:39:50;0.90;;;0.90;;
8737;SDS011;4405;49.272;8.590;2023-08-06T11:42:17;0.90;;;0.90;;
8737;SDS011;4405;49.272;8.590;2023-08-06T11:44:43;0.80;;;0.80;;
8737;SDS011;4405;49.272;8.590;2023-08-06T11:47:12;0.70;;;0.70;;
8737;SDS011;4405;49.272;8.590;2023-08-06T11:49:39;1.20;;;1.10;;
8737;SDS011;4405;49.272;8.590;2023-08-06T11:52:13;1.20;;;1.20;;
8737;SDS011;4405;49.272;8.590;2023-08-06T11:54:41;1.20;;;1.20;;
8737;SDS011;4405;49.272;8.590;2023-08-06T11:57:08;0.97;;;0.90;;
8737;SDS011;4405;49.272;8.590;2023-08-06T11:59:34;0.97;;;0.97;;
8737;SDS011;4405;49.272;8.590;2023-08-06T12:02:01;1.03;;;1.03;;
8737;SDS011;4405;49.272;8.590;2023-08-06T12:04:27;1.07;;;1.07;;
8737;SDS011;4405;49.272;8.590;2023-08-06T12:06:54;1.07;;;1.07;;
8737;SDS011;4405;49.272;8.590;2023-08-06T12:09:20;2.37;;;1.20;;
8737;SDS011;4405;49.272;8.590;2023-08-06T12:11:48;1.40;;;1.30;;
8737;SDS011;4405;49.272;8.590;2023-08-06T12:14:14;1.23;;;1.20;;
8737;SDS011;4405;49.272;8.590;2023-08-06T12:16:41;2.33;;;1.10;;
8737;SDS011;4405;49.272;8.590;2023-08-06T12:19:07;1.50;;;1.20;;
8737;SDS011;4405;49.272;8.590;2023-08-06T12:21:33;0.97;;;0.97;;
8737;SDS011;4405;49.272;8.590;2023-08-06T12:24:00;1.23;;;1.13;;
8737;SDS011;4405;49.272;8.590;2023-08-06T12:26:26;1.33;;;1.27;;
8737;SDS011;4405;49.272;8.590;2023-08-06T12:28:54;2.20;;;1.13;;
8737;SDS011;4405;49.272;8.590;2023-08-06T12:31:22;1.70;;;1.43;;
8737;SDS011;4405;49.272;8.590;2023-08-06T12:33:48;1.50;;;1.40;;
8737;SDS011;4405;49.272;8.590;2023-08-06T12:36:15;3.17;;;1.10;;
8737;SDS011;4405;49.272;8.590;2023-08-06T12:38:41;1.63;;;1.53;;
8737;SDS011;4405;49.272;8.590;2023-08-06T12:41:07;1.07;;;1.07;;
8737;SDS011;4405;49.272;8.590;2023-08-06T12:43:34;1.33;;;1.23;;
8737;SDS011;4405;49.272;8.590;2023-08-06T12:46:01;1.30;;;1.30;;
8737;SDS011;4405;49.272;8.590;2023-08-06T12:48:28;1.57;;;1.43;;
8737;SDS011;4405;49.272;8.590;2023-08-06T12:50:54;1.90;;;1.50;;
8737;SDS011;4405;49.272;8.590;2023-08-06T12:53:21;1.30;;;1.30;;
8737;SDS011;4405;49.272;8.590;2023-08-06T12:55:48;1.87;;;1.67;;
8737;SDS011;4405;49.272;8.590;2023-08-06T12:58:14;1.83;;;1.73;;
8737;SDS011;4405;49.272;8.590;2023-08-06T13:00:41;1.63;;;1.53;;
8737;SDS011;4405;49.272;8.590;2023-08-06T13:03:08;1.23;;;1.20;;
8737;SDS011;4405;49.272;8.590;2023-08-06T13:05:35;1.63;;;1.40;;
8737;SDS011;4405;49.272;8.590;2023-08-06T13:08:02;1.70;;;1.53;;
8737;SDS011;4405;49.272;8.590;2023-08-06T13:10:28;1.47;;;1.37;;
8737;SDS011;4405;49.272;8.590;2023-08-06T13:12:56;1.00;;;1.00;;
8737;SDS011;4405;49.272;8.590;2023-08-06T13:15:22;1.10;;;1.10;;
8737;SDS011;4405;49.272;8.590;2023-08-06T13:17:49;1.30;;;1.20;;
8737;SDS011;4405;49.272;8.590;2023-08-06T13:20:16;1.90;;;1.10;;
8737;SDS011;4405;49.272;8.590;2023-08-06T13:22:44;1.20;;;1.20;;
8737;SDS011;4405;49.272;8.590;2023-08-06T13:25:11;1.33;;;0.90;;
8737;SDS011;4405;49.272;8.590;2023-08-06T13:27:39;1.93;;;1.33;;
8737;SDS011;4405;49.272;8.590;2023-08-06T13:30:06;5.07;;;1.20;;
8737;SDS011;4405;49.272;8.590;2023-08-06T13:32:33;1.63;;;1.53;;
8737;SDS011;4405;49.272;8.590;2023-08-06T13:35:01;3.07;;;1.70;;
8737;SDS011;4405;49.272;8.590;2023-08-06T13:37:29;1.13;;;1.10;;
8737;SDS011;4405;49.272;8.590;2023-08-06T13:39:55;1.20;;;1.20;;
8737;SDS011;4405;49.272;8.590;2023-08-06T13:42:22;1.93;;;1.13;;
8737;SDS011;4405;49.272;8.590;2023-08-06T13:44:48;1.30;;;1.20;;
8737;SDS011;4405;49.272;8.590;2023-08-06T13:47:15;1.23;;;1.20;;
8737;SDS011;4405;49.272;8.590;2023-08-06T13:49:41;1.13;;;1.13;;
8737;SDS011;4405;49.272;8.590;2023-08-06T13:52:07;1.00;;;1.00;;
8737;SDS011;4405;49.272;8.590;2023-08-06T13:54:35;1.43;;;1.27;;
8737;SDS011;4405;49.272;8.590;2023-08-06T13:57:01;1.17;;;1.07;;
8737;SDS011;4405;49.272;8.590;2023-08-06T13:59:28;1.10;;;1.10;;
8737;SDS011;4405;49.272;8.590;2023-08-06T14:01:54;2.63;;;1.10;;
8737;SDS011;4405;49.272;8.590;2023-08-06T14:04:24;1.57;;;0.90;;
8737;SDS011;4405;49.272;8.590;2023-08-06T14:06:51;1.27;;;1.07;;
8737;SDS011;4405;49.272;8.590;2023-08-06T14:09:17;1.70;;;0.90;;
8737;SDS011;4405;49.272;8.590;2023-08-06T14:11:45;0.90;;;0.90;;
8737;SDS011;4405;49.272;8.590;2023-08-06T14:14:11;1.30;;;1.30;;
8737;SDS011;4405;49.272;8.590;2023-08-06T14:16:37;1.00;;;1.00;;
8737;SDS011;4405;49.272;8.590;2023-08-06T14:19:04;0.70;;;0.70;;
8737;SDS011;4405;49.272;8.590;2023-08-06T14:21:30;0.80;;;0.80;;
8737;SDS011;4405;49.272;8.590;2023-08-06T14:23:57;0.97;;;0.97;;
8737;SDS011;4405;49.272;8.590;2023-08-06T14:26:23;1.70;;;1.10;;
8737;SDS011;4405;49.272;8.590;2023-08-06T14:28:51;2.70;;;1.10;;
8737;SDS011;4405;49.272;8.590;2023-08-06T14:31:19;1.07;;;1.07;;
8737;SDS011;4405;49.272;8.590;2023-08-06T14:33:45;0.93;;;0.93;;
8737;SDS011;4405;49.272;8.590;2023-08-06T14:36:12;3.00;;;0.90;;
8737;SDS011;4405;49.272;8.590;2023-08-06T14:38:38;0.93;;;0.93;;
8737;SDS011;4405;49.272;8.590;2023-08-06T14:41:04;1.10;;;1.10;;
8737;SDS011;4405;49.272;8.590;2023-08-06T14:43:31;1.07;;;1.00;;
8737;SDS011;4405;49.272;8.590;2023-08-06T14:45:59;1.30;;;1.20;;
8737;SDS011;4405;49.272;8.590;2023-08-06T14:48:25;1.30;;;1.20;;
8737;SDS011;4405;49.272;8.590;2023-08-06T14:50:51;1.97;;;1.00;;
8737;SDS011;4405;49.272;8.590;2023-08-06T14:53:18;1.20;;;1.10;;
8737;SDS011;4405;49.272;8.590;2023-08-06T14:55:44;1.77;;;1.03;;
8737;SDS011;4405;49.272;8.590;2023-08-06T14:58:10;1.43;;;1.30;;
8737;SDS011;4405;49.272;8.590;2023-08-06T15:00:37;1.43;;;1.23;;
8737;SDS011;4405;49.272;8.590;2023-08-06T15:03:05;1.03;;;0.90;;
8737;SDS011;4405;49.272;8.590;2023-08-06T15:05:31;1.10;;;1.10;;
8737;SDS011;4405;49.272;8.590;2023-08-06T15:07:57;1.50;;;0.93;;
8737;SDS011;4405;49.272;8.590;2023-08-06T15:10:24;1.27;;;1.10;;
8737;SDS011;4405;49.272;8.590;2023-08-06T15:12:50;1.17;;;1.17;;